sensor_id;sensor_type;location;lat;lon;timestamp;P1;durP1;ratioP1;P2;durP2;ratioP2
7195;SDS011;3639;51.308;5.624;2023-02-16T00:00:38;38.20;;;20.57;;
7195;SDS011;3639;51.308;5.624;2023-02-16T00:03:04;43.70;;;20.87;;
7195;SDS011;3639;51.308;5.624;2023-02-16T00:05:31;47.40;;;22.10;;
7195;SDS011;3639;51.308;5.624;2023-02-16T00:07:58;43.50;;;19.90;;
7195;SDS011;3639;51.308;5.624;2023-02-16T00:10:25;45.60;;;20.53;;
7195;SDS011;3639;51.308;5.624;2023-02-16T00:12:55;44.70;;;22.43;;
7195;SDS011;3639;51.308;5.624;2023-02-16T00:15:39;47.83;;;21.83;;
7195;SDS011;3639;51.308;5.624;2023-02-16T00:18:11;43.53;;;21.73;;
7195;SDS011;3639;51.308;5.624;2023-02-16T00:20:41;47.00;;;21.10;;
7195;SDS011;3639;51.308;5.624;2023-02-16T00:23:08;41.23;;;20.57;;
7195;SDS011;3639;51.308;5.624;2023-02-16T00:25:34;43.80;;;21.63;;
7195;SDS011;3639;51.308;5.624;2023-02-16T00:28:04;49.27;;;22.33;;
7195;SDS011;3639;51.308;5.624;2023-02-16T00:30:35;43.00;;;20.90;;
7195;SDS011;3639;51.308;5.624;2023-02-16T00:33:01;45.27;;;22.37;;
7195;SDS011;3639;51.308;5.624;2023-02-16T00:35:27;39.33;;;19.90;;
7195;SDS011;3639;51.308;5.624;2023-02-16T00:37:52;47.63;;;22.43;;
7195;SDS011;3639;51.308;5.624;2023-02-16T00:40:18;55.70;;;25.27;;
7195;SDS011;3639;51.308;5.624;2023-02-16T00:42:44;54.20;;;24.83;;
7195;SDS011;3639;51.308;5.624;2023-02-16T00:45:13;47.93;;;22.30;;
7195;SDS011;3639;51.308;5.624;2023-02-16T00:47:44;43.70;;;21.33;;
7195;SDS011;3639;51.308;5.624;2023-02-16T00:50:15;43.30;;;21.23;;
7195;SDS011;3639;51.308;5.624;2023-02-16T00:52:47;46.50;;;21.77;;
7195;SDS011;3639;51.308;5.624;2023-02-16T00:55:17;46.27;;;21.23;;
7195;SDS011;3639;51.308;5.624;2023-02-16T00:57:45;42.20;;;21.30;;
7195;SDS011;3639;51.308;5.624;2023-02-16T01:00:26;45.70;;;21.17;;
7195;SDS011;3639;51.308;5.624;2023-02-16T01:02:59;48.43;;;22.17;;
7195;SDS011;3639;51.308;5.624;2023-02-16T01:05:26;39.07;;;20.53;;
7195;SDS011;3639;51.308;5.624;2023-02-16T01:07:53;45.57;;;23.13;;
7195;SDS011;3639;51.308;5.624;2023-02-16T01:10:37;47.67;;;20.67;;
7195;SDS011;3639;51.308;5.624;2023-02-16T01:13:22;42.80;;;21.63;;
7195;SDS011;3639;51.308;5.624;2023-02-16T01:15:50;45.70;;;20.97;;
7195;SDS011;3639;51.308;5.624;2023-02-16T01:18:16;47.07;;;21.63;;
7195;SDS011;3639;51.308;5.624;2023-02-16T01:20:43;50.10;;;22.97;;
7195;SDS011;3639;51.308;5.624;2023-02-16T01:23:10;42.80;;;21.57;;
7195;SDS011;3639;51.308;5.624;2023-02-16T01:25:36;38.80;;;19.47;;
7195;SDS011;3639;51.308;5.624;2023-02-16T01:28:02;41.73;;;21.57;;
7195;SDS011;3639;51.308;5.624;2023-02-16T01:30:38;45.07;;;22.90;;
7195;SDS011;3639;51.308;5.624;2023-02-16T01:33:03;45.83;;;21.03;;
7195;SDS011;3639;51.308;5.624;2023-02-16T01:35:30;51.53;;;22.30;;
7195;SDS011;3639;51.308;5.624;2023-02-16T01:37:57;39.60;;;19.87;;
7195;SDS011;3639;51.308;5.624;2023-02-16T01:43:01;42.87;;;21.57;;
7195;SDS011;3639;51.308;5.624;2023-02-16T01:45:35;44.43;;;20.47;;
7195;SDS011;3639;51.308;5.624;2023-02-16T01:48:05;46.50;;;21.97;;
7195;SDS011;3639;51.308;5.624;2023-02-16T01:51:12;47.93;;;22.63;;
7195;SDS011;3639;51.308;5.624;2023-02-16T01:53:39;43.47;;;21.87;;
7195;SDS011;3639;51.308;5.624;2023-02-16T01:59:25;52.37;;;24.17;;
7195;SDS011;3639;51.308;5.624;2023-02-16T02:05:14;48.07;;;21.23;;
7195;SDS011;3639;51.308;5.624;2023-02-16T02:16:03;46.23;;;21.60;;
7195;SDS011;3639;51.308;5.624;2023-02-16T02:18:29;49.20;;;23.40;;
7195;SDS011;3639;51.308;5.624;2023-02-16T02:27:37;48.30;;;21.27;;
7195;SDS011;3639;51.308;5.624;2023-02-16T02:35:48;56.23;;;23.80;;
7195;SDS011;3639;51.308;5.624;2023-02-16T02:41:19;42.43;;;21.07;;
7195;SDS011;3639;51.308;5.624;2023-02-16T02:44:11;47.87;;;22.20;;
7195;SDS011;3639;51.308;5.624;2023-02-16T02:46:41;51.57;;;21.63;;
7195;SDS011;3639;51.308;5.624;2023-02-16T02:49:07;49.73;;;22.53;;
7195;SDS011;3639;51.308;5.624;2023-02-16T02:51:33;44.67;;;21.77;;
7195;SDS011;3639;51.308;5.624;2023-02-16T02:56:59;47.13;;;22.37;;
7195;SDS011;3639;51.308;5.624;2023-02-16T03:00:07;42.80;;;20.33;;
7195;SDS011;3639;51.308;5.624;2023-02-16T03:03:13;45.70;;;20.87;;
7195;SDS011;3639;51.308;5.624;2023-02-16T03:05:52;44.13;;;20.33;;
7195;SDS011;3639;51.308;5.624;2023-02-16T03:08:21;50.47;;;22.63;;
7195;SDS011;3639;51.308;5.624;2023-02-16T03:10:50;41.00;;;20.20;;
7195;SDS011;3639;51.308;5.624;2023-02-16T03:13:43;43.37;;;20.10;;
7195;SDS011;3639;51.308;5.624;2023-02-16T03:16:16;44.27;;;20.87;;
7195;SDS011;3639;51.308;5.624;2023-02-16T03:18:48;42.47;;;20.27;;
7195;SDS011;3639;51.308;5.624;2023-02-16T03:21:33;45.83;;;20.97;;
7195;SDS011;3639;51.308;5.624;2023-02-16T03:24:20;48.77;;;22.23;;
7195;SDS011;3639;51.308;5.624;2023-02-16T03:27:11;48.80;;;22.17;;
7195;SDS011;3639;51.308;5.624;2023-02-16T03:29:59;49.47;;;22.10;;
7195;SDS011;3639;51.308;5.624;2023-02-16T03:32:26;48.83;;;22.13;;
7195;SDS011;3639;51.308;5.624;2023-02-16T03:34:52;47.17;;;22.33;;
7195;SDS011;3639;51.308;5.624;2023-02-16T03:37:17;50.33;;;22.83;;
7195;SDS011;3639;51.308;5.624;2023-02-16T03:39:43;50.33;;;22.87;;
7195;SDS011;3639;51.308;5.624;2023-02-16T03:42:28;45.47;;;20.83;;
7195;SDS011;3639;51.308;5.624;2023-02-16T03:44:53;44.80;;;22.57;;
7195;SDS011;3639;51.308;5.624;2023-02-16T03:47:19;52.50;;;22.63;;
7195;SDS011;3639;51.308;5.624;2023-02-16T03:49:45;44.93;;;21.73;;
7195;SDS011;3639;51.308;5.624;2023-02-16T03:52:10;51.73;;;22.97;;
7195;SDS011;3639;51.308;5.624;2023-02-16T03:54:36;45.13;;;22.87;;
7195;SDS011;3639;51.308;5.624;2023-02-16T03:57:01;45.97;;;21.17;;
7195;SDS011;3639;51.308;5.624;2023-02-16T03:59:27;51.60;;;23.73;;
7195;SDS011;3639;51.308;5.624;2023-02-16T04:01:53;48.97;;;22.70;;
7195;SDS011;3639;51.308;5.624;2023-02-16T04:04:19;38.70;;;20.77;;
7195;SDS011;3639;51.308;5.624;2023-02-16T04:06:44;52.50;;;22.10;;
7195;SDS011;3639;51.308;5.624;2023-02-16T04:09:10;47.20;;;21.97;;
7195;SDS011;3639;51.308;5.624;2023-02-16T04:11:35;50.33;;;22.00;;
7195;SDS011;3639;51.308;5.624;2023-02-16T04:14:20;54.00;;;24.03;;
7195;SDS011;3639;51.308;5.624;2023-02-16T04:16:45;49.80;;;22.47;;
7195;SDS011;3639;51.308;5.624;2023-02-16T04:19:12;43.97;;;22.70;;
7195;SDS011;3639;51.308;5.624;2023-02-16T04:21:37;49.80;;;23.43;;
7195;SDS011;3639;51.308;5.624;2023-02-16T04:24:03;48.10;;;21.40;;
7195;SDS011;3639;51.308;5.624;2023-02-16T04:26:30;50.67;;;24.00;;
7195;SDS011;3639;51.308;5.624;2023-02-16T04:28:56;46.33;;;20.80;;
7195;SDS011;3639;51.308;5.624;2023-02-16T04:31:21;48.20;;;22.37;;
7195;SDS011;3639;51.308;5.624;2023-02-16T04:33:47;49.33;;;22.40;;
7195;SDS011;3639;51.308;5.624;2023-02-16T04:36:13;49.70;;;22.50;;
7195;SDS011;3639;51.308;5.624;2023-02-16T04:38:38;47.70;;;21.37;;
7195;SDS011;3639;51.308;5.624;2023-02-16T04:41:04;47.33;;;21.07;;
7195;SDS011;3639;51.308;5.624;2023-02-16T04:43:30;47.07;;;20.83;;
7195;SDS011;3639;51.308;5.624;2023-02-16T04:45:56;44.60;;;21.13;;
7195;SDS011;3639;51.308;5.624;2023-02-16T04:48:22;46.83;;;21.33;;
7195;SDS011;3639;51.308;5.624;2023-02-16T04:50:47;42.87;;;21.23;;
7195;SDS011;3639;51.308;5.624;2023-02-16T04:53:14;44.33;;;21.07;;
7195;SDS011;3639;51.308;5.624;2023-02-16T04:55:44;39.67;;;20.03;;
7195;SDS011;3639;51.308;5.624;2023-02-16T04:58:13;51.50;;;22.30;;
7195;SDS011;3639;51.308;5.624;2023-02-16T05:00:39;41.90;;;20.23;;
7195;SDS011;3639;51.308;5.624;2023-02-16T05:03:05;45.57;;;21.00;;
7195;SDS011;3639;51.308;5.624;2023-02-16T05:05:31;47.30;;;22.50;;
7195;SDS011;3639;51.308;5.624;2023-02-16T05:07:59;47.47;;;20.97;;
7195;SDS011;3639;51.308;5.624;2023-02-16T05:10:25;45.17;;;20.03;;
7195;SDS011;3639;51.308;5.624;2023-02-16T05:12:51;45.00;;;22.30;;
7195;SDS011;3639;51.308;5.624;2023-02-16T05:15:35;40.10;;;19.97;;
7195;SDS011;3639;51.308;5.624;2023-02-16T05:18:01;46.20;;;21.07;;
7195;SDS011;3639;51.308;5.624;2023-02-16T05:20:26;46.83;;;21.57;;
7195;SDS011;3639;51.308;5.624;2023-02-16T05:23:11;47.30;;;19.93;;
7195;SDS011;3639;51.308;5.624;2023-02-16T05:25:36;44.47;;;23.17;;
7195;SDS011;3639;51.308;5.624;2023-02-16T05:28:02;47.97;;;21.27;;
7195;SDS011;3639;51.308;5.624;2023-02-16T05:30:29;52.77;;;23.13;;
7195;SDS011;3639;51.308;5.624;2023-02-16T05:32:55;49.50;;;23.00;;
7195;SDS011;3639;51.308;5.624;2023-02-16T05:35:22;46.33;;;20.47;;
7195;SDS011;3639;51.308;5.624;2023-02-16T05:37:47;42.40;;;20.37;;
7195;SDS011;3639;51.308;5.624;2023-02-16T05:40:13;38.87;;;20.50;;
7195;SDS011;3639;51.308;5.624;2023-02-16T05:42:39;49.80;;;22.27;;
7195;SDS011;3639;51.308;5.624;2023-02-16T05:45:04;42.83;;;20.27;;
7195;SDS011;3639;51.308;5.624;2023-02-16T05:47:30;47.43;;;21.77;;
7195;SDS011;3639;51.308;5.624;2023-02-16T05:49:56;38.57;;;19.73;;
7195;SDS011;3639;51.308;5.624;2023-02-16T05:52:22;41.40;;;22.57;;
7195;SDS011;3639;51.308;5.624;2023-02-16T05:54:47;36.67;;;19.97;;
7195;SDS011;3639;51.308;5.624;2023-02-16T05:57:13;43.60;;;21.80;;
7195;SDS011;3639;51.308;5.624;2023-02-16T05:59:38;38.03;;;20.80;;
7195;SDS011;3639;51.308;5.624;2023-02-16T06:02:04;49.77;;;20.77;;
7195;SDS011;3639;51.308;5.624;2023-02-16T06:04:30;46.30;;;20.47;;
7195;SDS011;3639;51.308;5.624;2023-02-16T06:06:56;43.27;;;20.93;;
7195;SDS011;3639;51.308;5.624;2023-02-16T06:09:22;42.90;;;21.13;;
7195;SDS011;3639;51.308;5.624;2023-02-16T06:11:48;49.97;;;22.03;;
7195;SDS011;3639;51.308;5.624;2023-02-16T06:14:14;47.90;;;20.40;;
7195;SDS011;3639;51.308;5.624;2023-02-16T06:16:42;42.03;;;19.93;;
7195;SDS011;3639;51.308;5.624;2023-02-16T06:19:11;43.90;;;19.87;;
7195;SDS011;3639;51.308;5.624;2023-02-16T06:21:37;38.67;;;19.10;;
7195;SDS011;3639;51.308;5.624;2023-02-16T06:24:03;44.97;;;19.97;;
7195;SDS011;3639;51.308;5.624;2023-02-16T06:26:30;42.50;;;19.33;;
7195;SDS011;3639;51.308;5.624;2023-02-16T06:28:55;40.73;;;19.47;;
7195;SDS011;3639;51.308;5.624;2023-02-16T06:31:21;35.90;;;19.53;;
7195;SDS011;3639;51.308;5.624;2023-02-16T06:33:48;45.37;;;19.97;;
7195;SDS011;3639;51.308;5.624;2023-02-16T06:36:14;42.27;;;20.60;;
7195;SDS011;3639;51.308;5.624;2023-02-16T06:38:40;39.43;;;20.77;;
7195;SDS011;3639;51.308;5.624;2023-02-16T06:41:06;35.23;;;19.43;;
7195;SDS011;3639;51.308;5.624;2023-02-16T06:43:32;41.13;;;19.30;;
7195;SDS011;3639;51.308;5.624;2023-02-16T06:45:58;38.03;;;20.33;;
7195;SDS011;3639;51.308;5.624;2023-02-16T06:48:24;40.23;;;19.00;;
7195;SDS011;3639;51.308;5.624;2023-02-16T06:50:49;34.40;;;18.27;;
7195;SDS011;3639;51.308;5.624;2023-02-16T06:53:15;36.90;;;19.33;;
7195;SDS011;3639;51.308;5.624;2023-02-16T06:55:41;39.40;;;18.87;;
7195;SDS011;3639;51.308;5.624;2023-02-16T06:58:07;42.20;;;18.80;;
7195;SDS011;3639;51.308;5.624;2023-02-16T07:00:33;42.23;;;19.60;;
7195;SDS011;3639;51.308;5.624;2023-02-16T07:02:59;46.17;;;19.90;;
7195;SDS011;3639;51.308;5.624;2023-02-16T07:05:25;39.47;;;19.17;;
7195;SDS011;3639;51.308;5.624;2023-02-16T07:07:51;35.47;;;18.53;;
7195;SDS011;3639;51.308;5.624;2023-02-16T07:10:17;35.30;;;18.97;;
7195;SDS011;3639;51.308;5.624;2023-02-16T07:12:44;40.63;;;20.43;;
7195;SDS011;3639;51.308;5.624;2023-02-16T07:15:10;35.63;;;18.33;;
7195;SDS011;3639;51.308;5.624;2023-02-16T07:17:35;37.77;;;20.03;;
7195;SDS011;3639;51.308;5.624;2023-02-16T07:20:01;35.57;;;19.30;;
7195;SDS011;3639;51.308;5.624;2023-02-16T07:22:29;36.70;;;19.57;;
7195;SDS011;3639;51.308;5.624;2023-02-16T07:24:54;37.80;;;19.20;;
7195;SDS011;3639;51.308;5.624;2023-02-16T07:27:21;39.07;;;19.77;;
7195;SDS011;3639;51.308;5.624;2023-02-16T07:29:47;39.70;;;19.53;;
7195;SDS011;3639;51.308;5.624;2023-02-16T07:32:13;37.47;;;17.37;;
7195;SDS011;3639;51.308;5.624;2023-02-16T07:34:39;34.73;;;17.97;;
7195;SDS011;3639;51.308;5.624;2023-02-16T07:37:04;42.17;;;19.67;;
7195;SDS011;3639;51.308;5.624;2023-02-16T07:39:30;37.73;;;18.70;;
7195;SDS011;3639;51.308;5.624;2023-02-16T07:41:56;36.07;;;18.00;;
7195;SDS011;3639;51.308;5.624;2023-02-16T07:44:21;33.70;;;18.40;;
7195;SDS011;3639;51.308;5.624;2023-02-16T07:46:47;37.13;;;19.97;;
7195;SDS011;3639;51.308;5.624;2023-02-16T07:49:12;42.80;;;19.53;;
7195;SDS011;3639;51.308;5.624;2023-02-16T07:51:38;37.80;;;18.30;;
7195;SDS011;3639;51.308;5.624;2023-02-16T07:54:04;39.70;;;19.90;;
7195;SDS011;3639;51.308;5.624;2023-02-16T07:56:31;40.13;;;20.13;;
7195;SDS011;3639;51.308;5.624;2023-02-16T07:58:58;31.50;;;17.47;;
7195;SDS011;3639;51.308;5.624;2023-02-16T08:01:25;40.53;;;20.13;;
7195;SDS011;3639;51.308;5.624;2023-02-16T08:03:51;37.10;;;18.60;;
7195;SDS011;3639;51.308;5.624;2023-02-16T08:06:17;39.30;;;19.03;;
7195;SDS011;3639;51.308;5.624;2023-02-16T08:08:44;30.33;;;17.83;;
7195;SDS011;3639;51.308;5.624;2023-02-16T08:11:14;40.37;;;19.97;;
7195;SDS011;3639;51.308;5.624;2023-02-16T08:13:40;33.20;;;18.00;;
7195;SDS011;3639;51.308;5.624;2023-02-16T08:16:06;35.80;;;19.27;;
7195;SDS011;3639;51.308;5.624;2023-02-16T08:18:37;33.20;;;18.40;;
7195;SDS011;3639;51.308;5.624;2023-02-16T08:21:13;36.00;;;17.67;;
7195;SDS011;3639;51.308;5.624;2023-02-16T08:24:14;34.27;;;18.50;;
7195;SDS011;3639;51.308;5.624;2023-02-16T08:26:37;31.93;;;17.70;;
7195;SDS011;3639;51.308;5.624;2023-02-16T08:29:06;34.57;;;17.57;;
7195;SDS011;3639;51.308;5.624;2023-02-16T08:31:34;32.33;;;17.23;;
7195;SDS011;3639;51.308;5.624;2023-02-16T08:34:02;37.10;;;17.37;;
7195;SDS011;3639;51.308;5.624;2023-02-16T08:36:30;30.63;;;15.33;;
7195;SDS011;3639;51.308;5.624;2023-02-16T08:38:59;32.10;;;16.80;;
7195;SDS011;3639;51.308;5.624;2023-02-16T08:41:28;35.53;;;18.00;;
7195;SDS011;3639;51.308;5.624;2023-02-16T08:43:56;31.83;;;15.93;;
7195;SDS011;3639;51.308;5.624;2023-02-16T08:46:21;32.40;;;16.87;;
7195;SDS011;3639;51.308;5.624;2023-02-16T08:48:47;35.97;;;17.40;;
7195;SDS011;3639;51.308;5.624;2023-02-16T08:51:14;33.87;;;17.60;;
7195;SDS011;3639;51.308;5.624;2023-02-16T08:53:41;30.87;;;17.27;;
7195;SDS011;3639;51.308;5.624;2023-02-16T08:56:08;32.07;;;16.50;;
7195;SDS011;3639;51.308;5.624;2023-02-16T08:58:35;28.50;;;16.37;;
7195;SDS011;3639;51.308;5.624;2023-02-16T09:01:08;36.37;;;17.70;;
7195;SDS011;3639;51.308;5.624;2023-02-16T09:03:36;31.83;;;16.73;;
7195;SDS011;3639;51.308;5.624;2023-02-16T09:06:03;31.13;;;17.57;;
7195;SDS011;3639;51.308;5.624;2023-02-16T09:08:30;30.67;;;17.13;;
7195;SDS011;3639;51.308;5.624;2023-02-16T09:11:02;33.13;;;16.27;;
7195;SDS011;3639;51.308;5.624;2023-02-16T09:13:36;31.90;;;17.30;;
7195;SDS011;3639;51.308;5.624;2023-02-16T09:16:04;28.13;;;15.73;;
7195;SDS011;3639;51.308;5.624;2023-02-16T09:18:32;29.20;;;16.63;;
7195;SDS011;3639;51.308;5.624;2023-02-16T09:21:01;33.37;;;17.90;;
7195;SDS011;3639;51.308;5.624;2023-02-16T09:23:34;30.37;;;15.90;;
7195;SDS011;3639;51.308;5.624;2023-02-16T09:26:01;32.27;;;18.47;;
7195;SDS011;3639;51.308;5.624;2023-02-16T09:28:27;36.47;;;17.00;;
7195;SDS011;3639;51.308;5.624;2023-02-16T09:30:53;37.80;;;16.93;;
7195;SDS011;3639;51.308;5.624;2023-02-16T09:33:19;41.17;;;16.47;;
7195;SDS011;3639;51.308;5.624;2023-02-16T09:35:45;30.33;;;16.07;;
7195;SDS011;3639;51.308;5.624;2023-02-16T09:38:11;32.13;;;16.73;;
7195;SDS011;3639;51.308;5.624;2023-02-16T09:40:40;30.00;;;16.77;;
7195;SDS011;3639;51.308;5.624;2023-02-16T09:43:08;31.07;;;16.73;;
7195;SDS011;3639;51.308;5.624;2023-02-16T09:45:40;34.33;;;17.60;;
7195;SDS011;3639;51.308;5.624;2023-02-16T09:50:51;28.63;;;16.63;;
7195;SDS011;3639;51.308;5.624;2023-02-16T09:53:34;29.03;;;16.90;;
7195;SDS011;3639;51.308;5.624;2023-02-16T09:56:12;30.97;;;16.93;;
7195;SDS011;3639;51.308;5.624;2023-02-16T09:58:42;32.73;;;17.40;;
7195;SDS011;3639;51.308;5.624;2023-02-16T10:09:19;31.47;;;17.17;;
7195;SDS011;3639;51.308;5.624;2023-02-16T10:11:50;37.30;;;17.70;;
7195;SDS011;3639;51.308;5.624;2023-02-16T10:17:00;37.03;;;18.80;;
7195;SDS011;3639;51.308;5.624;2023-02-16T10:19:34;36.97;;;18.53;;
7195;SDS011;3639;51.308;5.624;2023-02-16T10:22:05;37.37;;;19.13;;
7195;SDS011;3639;51.308;5.624;2023-02-16T10:24:57;34.20;;;16.90;;
7195;SDS011;3639;51.308;5.624;2023-02-16T10:27:37;37.43;;;18.83;;
7195;SDS011;3639;51.308;5.624;2023-02-16T10:30:10;29.23;;;17.53;;
7195;SDS011;3639;51.308;5.624;2023-02-16T10:32:49;30.90;;;18.83;;
7195;SDS011;3639;51.308;5.624;2023-02-16T10:43:52;35.23;;;17.60;;
7195;SDS011;3639;51.308;5.624;2023-02-16T10:46:25;36.33;;;18.33;;
7195;SDS011;3639;51.308;5.624;2023-02-16T10:48:58;32.63;;;17.20;;
7195;SDS011;3639;51.308;5.624;2023-02-16T10:51:27;32.37;;;18.80;;
7195;SDS011;3639;51.308;5.624;2023-02-16T10:54:02;33.67;;;17.87;;
7195;SDS011;3639;51.308;5.624;2023-02-16T11:01:47;33.13;;;18.07;;
7195;SDS011;3639;51.308;5.624;2023-02-16T11:07:12;36.23;;;19.33;;
7195;SDS011;3639;51.308;5.624;2023-02-16T11:09:41;30.87;;;18.70;;
7195;SDS011;3639;51.308;5.624;2023-02-16T11:15:03;33.83;;;17.53;;
7195;SDS011;3639;51.308;5.624;2023-02-16T11:20:51;29.53;;;15.93;;
7195;SDS011;3639;51.308;5.624;2023-02-16T11:25:54;32.00;;;18.10;;
7195;SDS011;3639;51.308;5.624;2023-02-16T11:33:37;31.60;;;17.17;;
7195;SDS011;3639;51.308;5.624;2023-02-16T11:36:18;32.80;;;17.60;;
7195;SDS011;3639;51.308;5.624;2023-02-16T11:39:12;31.73;;;17.67;;
7195;SDS011;3639;51.308;5.624;2023-02-16T11:41:54;30.70;;;17.97;;
7195;SDS011;3639;51.308;5.624;2023-02-16T11:44:32;33.63;;;17.83;;
7195;SDS011;3639;51.308;5.624;2023-02-16T11:47:03;31.37;;;17.97;;
7195;SDS011;3639;51.308;5.624;2023-02-16T11:49:44;34.40;;;18.90;;
7195;SDS011;3639;51.308;5.624;2023-02-16T11:52:18;35.67;;;18.93;;
7195;SDS011;3639;51.308;5.624;2023-02-16T11:54:51;34.37;;;18.17;;
7195;SDS011;3639;51.308;5.624;2023-02-16T11:57:32;36.60;;;18.43;;
7195;SDS011;3639;51.308;5.624;2023-02-16T12:00:00;34.00;;;18.80;;
7195;SDS011;3639;51.308;5.624;2023-02-16T12:16:59;33.70;;;16.90;;
7195;SDS011;3639;51.308;5.624;2023-02-16T12:19:40;31.80;;;18.00;;
7195;SDS011;3639;51.308;5.624;2023-02-16T12:27:51;33.67;;;18.10;;
7195;SDS011;3639;51.308;5.624;2023-02-16T12:30:22;31.33;;;17.17;;
7195;SDS011;3639;51.308;5.624;2023-02-16T12:44:14;33.37;;;17.80;;
7195;SDS011;3639;51.308;5.624;2023-02-16T12:46:45;29.47;;;16.97;;
7195;SDS011;3639;51.308;5.624;2023-02-16T12:49:27;33.43;;;17.80;;
7195;SDS011;3639;51.308;5.624;2023-02-16T12:52:05;31.30;;;16.70;;
7195;SDS011;3639;51.308;5.624;2023-02-16T12:54:58;29.73;;;17.23;;
7195;SDS011;3639;51.308;5.624;2023-02-16T12:57:49;33.20;;;16.70;;
7195;SDS011;3639;51.308;5.624;2023-02-16T13:00:22;30.80;;;18.20;;
7195;SDS011;3639;51.308;5.624;2023-02-16T13:03:23;30.00;;;16.70;;
7195;SDS011;3639;51.308;5.624;2023-02-16T13:08:53;32.63;;;16.53;;
7195;SDS011;3639;51.308;5.624;2023-02-16T13:11:21;28.60;;;15.97;;
7195;SDS011;3639;51.308;5.624;2023-02-16T13:13:50;30.03;;;16.83;;
7195;SDS011;3639;51.308;5.624;2023-02-16T13:16:32;29.80;;;15.10;;
7195;SDS011;3639;51.308;5.624;2023-02-16T13:19:12;28.70;;;16.13;;
7195;SDS011;3639;51.308;5.624;2023-02-16T13:29:57;26.37;;;15.50;;
7195;SDS011;3639;51.308;5.624;2023-02-16T13:44:09;26.60;;;14.70;;
7195;SDS011;3639;51.308;5.624;2023-02-16T13:46:41;30.77;;;15.63;;
7195;SDS011;3639;51.308;5.624;2023-02-16T13:51:55;26.00;;;14.20;;
7195;SDS011;3639;51.308;5.624;2023-02-16T13:54:22;26.77;;;14.70;;
7195;SDS011;3639;51.308;5.624;2023-02-16T13:56:56;24.00;;;14.53;;
7195;SDS011;3639;51.308;5.624;2023-02-16T14:01:48;25.90;;;15.33;;
7195;SDS011;3639;51.308;5.624;2023-02-16T14:06:47;24.97;;;14.70;;
7195;SDS011;3639;51.308;5.624;2023-02-16T14:11:59;23.63;;;15.13;;
7195;SDS011;3639;51.308;5.624;2023-02-16T14:19:55;27.50;;;13.90;;
7195;SDS011;3639;51.308;5.624;2023-02-16T14:27:55;26.20;;;15.80;;
7195;SDS011;3639;51.308;5.624;2023-02-16T14:30:27;28.13;;;15.57;;
7195;SDS011;3639;51.308;5.624;2023-02-16T14:33:27;25.43;;;14.93;;
7195;SDS011;3639;51.308;5.624;2023-02-16T14:36:26;26.30;;;15.87;;
7195;SDS011;3639;51.308;5.624;2023-02-16T14:38:51;30.67;;;16.03;;
7195;SDS011;3639;51.308;5.624;2023-02-16T14:41:23;29.17;;;16.60;;
7195;SDS011;3639;51.308;5.624;2023-02-16T14:49:49;29.10;;;15.77;;
7195;SDS011;3639;51.308;5.624;2023-02-16T14:57:57;24.40;;;14.90;;
7195;SDS011;3639;51.308;5.624;2023-02-16T15:03:19;26.37;;;16.20;;
7195;SDS011;3639;51.308;5.624;2023-02-16T15:06:03;26.77;;;15.70;;
7195;SDS011;3639;51.308;5.624;2023-02-16T15:08:30;24.90;;;14.60;;
7195;SDS011;3639;51.308;5.624;2023-02-16T15:11:23;28.57;;;15.70;;
7195;SDS011;3639;51.308;5.624;2023-02-16T15:13:53;28.47;;;14.83;;
7195;SDS011;3639;51.308;5.624;2023-02-16T15:16:20;31.33;;;15.67;;
7195;SDS011;3639;51.308;5.624;2023-02-16T15:18:47;30.87;;;16.80;;
7195;SDS011;3639;51.308;5.624;2023-02-16T15:21:19;28.30;;;15.63;;
7195;SDS011;3639;51.308;5.624;2023-02-16T15:23:52;29.27;;;15.00;;
7195;SDS011;3639;51.308;5.624;2023-02-16T15:26:21;25.00;;;13.63;;
7195;SDS011;3639;51.308;5.624;2023-02-16T15:28:56;25.00;;;15.03;;
7195;SDS011;3639;51.308;5.624;2023-02-16T15:31:31;26.90;;;14.90;;
7195;SDS011;3639;51.308;5.624;2023-02-16T15:34:04;27.43;;;15.43;;
7195;SDS011;3639;51.308;5.624;2023-02-16T15:36:35;24.70;;;14.90;;
7195;SDS011;3639;51.308;5.624;2023-02-16T15:39:04;25.03;;;14.13;;
7195;SDS011;3639;51.308;5.624;2023-02-16T15:41:38;24.60;;;14.70;;
7195;SDS011;3639;51.308;5.624;2023-02-16T15:44:13;26.17;;;14.57;;
7195;SDS011;3639;51.308;5.624;2023-02-16T15:47:09;29.07;;;14.33;;
7195;SDS011;3639;51.308;5.624;2023-02-16T15:49:41;31.87;;;14.13;;
7195;SDS011;3639;51.308;5.624;2023-02-16T15:52:10;25.67;;;14.27;;
7195;SDS011;3639;51.308;5.624;2023-02-16T15:54:40;21.10;;;13.70;;
7195;SDS011;3639;51.308;5.624;2023-02-16T15:57:11;23.80;;;13.83;;
7195;SDS011;3639;51.308;5.624;2023-02-16T15:59:46;23.90;;;13.20;;
7195;SDS011;3639;51.308;5.624;2023-02-16T16:04:44;21.27;;;12.67;;
7195;SDS011;3639;51.308;5.624;2023-02-16T16:07:17;21.13;;;12.40;;
7195;SDS011;3639;51.308;5.624;2023-02-16T16:09:50;21.90;;;12.47;;
7195;SDS011;3639;51.308;5.624;2023-02-16T16:12:16;23.90;;;13.00;;
7195;SDS011;3639;51.308;5.624;2023-02-16T16:14:48;23.70;;;12.83;;
7195;SDS011;3639;51.308;5.624;2023-02-16T16:17:15;20.30;;;12.20;;
7195;SDS011;3639;51.308;5.624;2023-02-16T16:19:44;19.67;;;10.97;;
7195;SDS011;3639;51.308;5.624;2023-02-16T16:22:56;19.50;;;12.90;;
7195;SDS011;3639;51.308;5.624;2023-02-16T16:27:52;18.73;;;11.37;;
7195;SDS011;3639;51.308;5.624;2023-02-16T16:33:01;24.33;;;12.83;;
7195;SDS011;3639;51.308;5.624;2023-02-16T16:35:42;20.27;;;11.00;;
7195;SDS011;3639;51.308;5.624;2023-02-16T16:38:22;18.47;;;10.10;;
7195;SDS011;3639;51.308;5.624;2023-02-16T16:40:57;20.40;;;10.80;;
7195;SDS011;3639;51.308;5.624;2023-02-16T16:43:28;20.77;;;11.30;;
7195;SDS011;3639;51.308;5.624;2023-02-16T16:46:16;15.77;;;9.40;;
7195;SDS011;3639;51.308;5.624;2023-02-16T16:48:45;19.57;;;10.10;;
7195;SDS011;3639;51.308;5.624;2023-02-16T16:56:17;17.67;;;9.27;;
7195;SDS011;3639;51.308;5.624;2023-02-16T16:58:46;17.43;;;11.03;;
7195;SDS011;3639;51.308;5.624;2023-02-16T17:01:14;19.90;;;10.67;;
7195;SDS011;3639;51.308;5.624;2023-02-16T17:03:40;19.00;;;11.17;;
7195;SDS011;3639;51.308;5.624;2023-02-16T17:06:05;26.23;;;14.43;;
7195;SDS011;3639;51.308;5.624;2023-02-16T17:08:32;17.43;;;10.63;;
7195;SDS011;3639;51.308;5.624;2023-02-16T17:10:59;18.17;;;10.17;;
7195;SDS011;3639;51.308;5.624;2023-02-16T17:13:25;16.57;;;10.00;;
7195;SDS011;3639;51.308;5.624;2023-02-16T17:15:56;18.07;;;10.97;;
7195;SDS011;3639;51.308;5.624;2023-02-16T17:18:36;19.23;;;10.70;;
7195;SDS011;3639;51.308;5.624;2023-02-16T17:21:02;21.53;;;10.17;;
7195;SDS011;3639;51.308;5.624;2023-02-16T17:23:29;17.90;;;11.77;;
7195;SDS011;3639;51.308;5.624;2023-02-16T17:25:55;18.83;;;11.33;;
7195;SDS011;3639;51.308;5.624;2023-02-16T17:28:20;29.27;;;12.77;;
7195;SDS011;3639;51.308;5.624;2023-02-16T17:30:46;19.90;;;11.67;;
7195;SDS011;3639;51.308;5.624;2023-02-16T17:33:12;29.17;;;13.27;;
7195;SDS011;3639;51.308;5.624;2023-02-16T17:35:39;21.13;;;11.43;;
7195;SDS011;3639;51.308;5.624;2023-02-16T17:38:17;31.07;;;15.00;;
7195;SDS011;3639;51.308;5.624;2023-02-16T17:40:47;24.03;;;12.67;;
7195;SDS011;3639;51.308;5.624;2023-02-16T17:43:15;22.47;;;11.70;;
7195;SDS011;3639;51.308;5.624;2023-02-16T17:45:42;25.73;;;12.23;;
7195;SDS011;3639;51.308;5.624;2023-02-16T17:48:18;19.63;;;12.00;;
7195;SDS011;3639;51.308;5.624;2023-02-16T17:50:48;26.30;;;13.57;;
7195;SDS011;3639;51.308;5.624;2023-02-16T17:53:16;24.03;;;12.60;;
7195;SDS011;3639;51.308;5.624;2023-02-16T17:55:43;28.07;;;14.50;;
7195;SDS011;3639;51.308;5.624;2023-02-16T17:58:11;24.03;;;12.83;;
7195;SDS011;3639;51.308;5.624;2023-02-16T18:00:37;26.13;;;13.33;;
7195;SDS011;3639;51.308;5.624;2023-02-16T18:03:04;22.97;;;13.37;;
7195;SDS011;3639;51.308;5.624;2023-02-16T18:05:30;19.50;;;12.03;;
7195;SDS011;3639;51.308;5.624;2023-02-16T18:07:56;25.70;;;13.60;;
7195;SDS011;3639;51.308;5.624;2023-02-16T18:10:35;23.80;;;13.17;;